sensor_id;sensor_type;location;lat;lon;timestamp;P1;durP1;ratioP1;P2;durP2;ratioP2
28007;SDS011;15333;50.010;20.020;2023-07-20T00:01:20;10.35;;;7.32;;
28007;SDS011;15333;50.010;20.020;2023-07-20T00:04:20;15.02;;;6.90;;
28007;SDS011;15333;50.010;20.020;2023-07-20T00:07:21;12.63;;;6.93;;
28007;SDS011;15333;50.010;20.020;2023-07-20T00:10:22;11.57;;;7.20;;
28007;SDS011;15333;50.010;20.020;2023-07-20T00:13:23;13.93;;;6.72;;
28007;SDS011;15333;50.010;20.020;2023-07-20T00:16:24;14.05;;;6.75;;
28007;SDS011;15333;50.010;20.020;2023-07-20T00:19:26;12.50;;;5.90;;
28007;SDS011;15333;50.010;20.020;2023-07-20T00:22:27;14.55;;;6.65;;
28007;SDS011;15333;50.010;20.020;2023-07-20T00:25:28;11.10;;;6.07;;
28007;SDS011;15333;50.010;20.020;2023-07-20T00:28:29;9.25;;;5.72;;
28007;SDS011;15333;50.010;20.020;2023-07-20T00:31:30;12.88;;;6.00;;
28007;SDS011;15333;50.010;20.020;2023-07-20T00:34:31;10.50;;;5.68;;
28007;SDS011;15333;50.010;20.020;2023-07-20T00:37:32;10.43;;;6.07;;
28007;SDS011;15333;50.010;20.020;2023-07-20T00:40:37;9.60;;;5.93;;
28007;SDS011;15333;50.010;20.020;2023-07-20T00:43:38;9.68;;;6.05;;
28007;SDS011;15333;50.010;20.020;2023-07-20T00:46:40;9.75;;;6.20;;
28007;SDS011;15333;50.010;20.020;2023-07-20T00:49:42;9.82;;;6.45;;
28007;SDS011;15333;50.010;20.020;2023-07-20T00:52:43;9.25;;;5.57;;
28007;SDS011;15333;50.010;20.020;2023-07-20T00:55:45;10.98;;;6.03;;
28007;SDS011;15333;50.010;20.020;2023-07-20T00:58:46;10.02;;;5.35;;
28007;SDS011;15333;50.010;20.020;2023-07-20T01:01:47;9.70;;;5.68;;
28007;SDS011;15333;50.010;20.020;2023-07-20T01:04:50;12.50;;;6.15;;
28007;SDS011;15333;50.010;20.020;2023-07-20T01:07:53;14.45;;;5.75;;
28007;SDS011;15333;50.010;20.020;2023-07-20T01:11:03;7.03;;;5.05;;
28007;SDS011;15333;50.010;20.020;2023-07-20T01:14:18;12.15;;;5.35;;
28007;SDS011;15333;50.010;20.020;2023-07-20T01:17:19;9.70;;;5.43;;
28007;SDS011;15333;50.010;20.020;2023-07-20T01:20:20;10.85;;;5.53;;
28007;SDS011;15333;50.010;20.020;2023-07-20T01:33:00;8.55;;;5.13;;
28007;SDS011;15333;50.010;20.020;2023-07-20T01:36:02;9.52;;;5.40;;
28007;SDS011;15333;50.010;20.020;2023-07-20T01:39:04;10.82;;;6.18;;
28007;SDS011;15333;50.010;20.020;2023-07-20T01:42:06;10.48;;;6.43;;
28007;SDS011;15333;50.010;20.020;2023-07-20T01:45:07;11.60;;;7.43;;
28007;SDS011;15333;50.010;20.020;2023-07-20T01:48:09;12.43;;;6.93;;
28007;SDS011;15333;50.010;20.020;2023-07-20T01:51:10;12.38;;;7.43;;
28007;SDS011;15333;50.010;20.020;2023-07-20T01:54:12;11.73;;;7.82;;
28007;SDS011;15333;50.010;20.020;2023-07-20T01:57:13;10.18;;;7.40;;
28007;SDS011;15333;50.010;20.020;2023-07-20T02:00:14;10.95;;;7.75;;
28007;SDS011;15333;50.010;20.020;2023-07-20T02:03:15;14.20;;;7.78;;
28007;SDS011;15333;50.010;20.020;2023-07-20T02:06:19;11.73;;;7.82;;
28007;SDS011;15333;50.010;20.020;2023-07-20T02:09:20;14.18;;;8.05;;
28007;SDS011;15333;50.010;20.020;2023-07-20T02:12:20;14.68;;;7.35;;
28007;SDS011;15333;50.010;20.020;2023-07-20T02:15:22;11.90;;;7.78;;
28007;SDS011;15333;50.010;20.020;2023-07-20T02:18:25;14.15;;;7.68;;
28007;SDS011;15333;50.010;20.020;2023-07-20T02:21:26;14.73;;;7.68;;
28007;SDS011;15333;50.010;20.020;2023-07-20T02:24:27;12.88;;;8.52;;
28007;SDS011;15333;50.010;20.020;2023-07-20T02:27:28;12.68;;;8.32;;
28007;SDS011;15333;50.010;20.020;2023-07-20T02:30:29;13.50;;;9.02;;
28007;SDS011;15333;50.010;20.020;2023-07-20T02:33:30;12.73;;;7.80;;
28007;SDS011;15333;50.010;20.020;2023-07-20T02:36:31;13.18;;;8.13;;
28007;SDS011;15333;50.010;20.020;2023-07-20T02:39:36;14.18;;;8.02;;
28007;SDS011;15333;50.010;20.020;2023-07-20T02:42:36;13.45;;;7.75;;
28007;SDS011;15333;50.010;20.020;2023-07-20T02:45:41;11.90;;;7.90;;
28007;SDS011;15333;50.010;20.020;2023-07-20T02:48:44;11.30;;;8.00;;
28007;SDS011;15333;50.010;20.020;2023-07-20T02:51:45;10.82;;;6.63;;
28007;SDS011;15333;50.010;20.020;2023-07-20T02:54:46;11.73;;;7.70;;
28007;SDS011;15333;50.010;20.020;2023-07-20T02:57:48;13.52;;;8.15;;
28007;SDS011;15333;50.010;20.020;2023-07-20T03:00:48;14.57;;;8.07;;
28007;SDS011;15333;50.010;20.020;2023-07-20T03:03:49;11.57;;;8.02;;
28007;SDS011;15333;50.010;20.020;2023-07-20T03:06:50;13.45;;;8.07;;
28007;SDS011;15333;50.010;20.020;2023-07-20T03:09:51;14.13;;;8.25;;
28007;SDS011;15333;50.010;20.020;2023-07-20T03:12:52;18.27;;;8.63;;
28007;SDS011;15333;50.010;20.020;2023-07-20T03:15:53;19.20;;;8.05;;
28007;SDS011;15333;50.010;20.020;2023-07-20T03:18:54;13.85;;;7.88;;
28007;SDS011;15333;50.010;20.020;2023-07-20T03:21:55;16.38;;;8.73;;
28007;SDS011;15333;50.010;20.020;2023-07-20T03:24:57;24.05;;;8.60;;
28007;SDS011;15333;50.010;20.020;2023-07-20T03:27:58;12.75;;;8.20;;
28007;SDS011;15333;50.010;20.020;2023-07-20T03:30:59;12.40;;;8.63;;
28007;SDS011;15333;50.010;20.020;2023-07-20T03:34:01;15.27;;;8.30;;
28007;SDS011;15333;50.010;20.020;2023-07-20T03:37:02;14.48;;;8.15;;
28007;SDS011;15333;50.010;20.020;2023-07-20T03:40:05;13.18;;;7.20;;
28007;SDS011;15333;50.010;20.020;2023-07-20T03:43:07;13.32;;;7.80;;
28007;SDS011;15333;50.010;20.020;2023-07-20T03:46:09;13.82;;;7.63;;
28007;SDS011;15333;50.010;20.020;2023-07-20T03:49:09;12.02;;;7.53;;
28007;SDS011;15333;50.010;20.020;2023-07-20T03:52:10;11.13;;;6.93;;
28007;SDS011;15333;50.010;20.020;2023-07-20T03:55:11;15.23;;;7.35;;
28007;SDS011;15333;50.010;20.020;2023-07-20T03:58:13;16.48;;;7.60;;
28007;SDS011;15333;50.010;20.020;2023-07-20T04:01:14;12.45;;;7.07;;
28007;SDS011;15333;50.010;20.020;2023-07-20T04:04:17;11.38;;;7.03;;
28007;SDS011;15333;50.010;20.020;2023-07-20T04:07:18;10.63;;;6.63;;
28007;SDS011;15333;50.010;20.020;2023-07-20T04:10:19;11.93;;;6.72;;
28007;SDS011;15333;50.010;20.020;2023-07-20T04:13:19;12.65;;;6.85;;
28007;SDS011;15333;50.010;20.020;2023-07-20T04:16:21;14.85;;;7.00;;
28007;SDS011;15333;50.010;20.020;2023-07-20T04:19:21;12.50;;;7.07;;
28007;SDS011;15333;50.010;20.020;2023-07-20T04:22:23;17.33;;;7.07;;
28007;SDS011;15333;50.010;20.020;2023-07-20T04:25:24;11.00;;;6.75;;
28007;SDS011;15333;50.010;20.020;2023-07-20T04:28:25;8.93;;;6.18;;
28007;SDS011;15333;50.010;20.020;2023-07-20T04:31:26;13.82;;;6.93;;
28007;SDS011;15333;50.010;20.020;2023-07-20T04:34:27;11.55;;;6.60;;
28007;SDS011;15333;50.010;20.020;2023-07-20T04:37:28;10.07;;;6.75;;
28007;SDS011;15333;50.010;20.020;2023-07-20T04:40:29;10.68;;;6.43;;
28007;SDS011;15333;50.010;20.020;2023-07-20T04:43:30;8.80;;;5.97;;
28007;SDS011;15333;50.010;20.020;2023-07-20T04:46:31;16.05;;;6.47;;
28007;SDS011;15333;50.010;20.020;2023-07-20T04:49:35;7.75;;;5.45;;
28007;SDS011;15333;50.010;20.020;2023-07-20T04:52:36;12.43;;;5.35;;
28007;SDS011;15333;50.010;20.020;2023-07-20T04:55:37;14.40;;;6.05;;
28007;SDS011;15333;50.010;20.020;2023-07-20T04:58:39;9.07;;;5.18;;
28007;SDS011;15333;50.010;20.020;2023-07-20T05:01:40;11.73;;;6.43;;
28007;SDS011;15333;50.010;20.020;2023-07-20T05:04:42;11.75;;;5.82;;
28007;SDS011;15333;50.010;20.020;2023-07-20T05:07:44;12.10;;;6.53;;
28007;SDS011;15333;50.010;20.020;2023-07-20T05:10:45;11.45;;;6.10;;
28007;SDS011;15333;50.010;20.020;2023-07-20T05:13:46;15.27;;;7.25;;
28007;SDS011;15333;50.010;20.020;2023-07-20T05:16:47;11.68;;;5.95;;
28007;SDS011;15333;50.010;20.020;2023-07-20T05:19:48;11.43;;;6.30;;
28007;SDS011;15333;50.010;20.020;2023-07-20T05:22:49;10.40;;;6.57;;
28007;SDS011;15333;50.010;20.020;2023-07-20T05:25:56;11.02;;;6.30;;
28007;SDS011;15333;50.010;20.020;2023-07-20T05:28:58;14.15;;;6.68;;
28007;SDS011;15333;50.010;20.020;2023-07-20T05:31:58;12.45;;;6.35;;
28007;SDS011;15333;50.010;20.020;2023-07-20T05:34:59;13.35;;;7.20;;
28007;SDS011;15333;50.010;20.020;2023-07-20T05:38:00;11.55;;;5.85;;
28007;SDS011;15333;50.010;20.020;2023-07-20T05:41:01;10.10;;;5.07;;
28007;SDS011;15333;50.010;20.020;2023-07-20T05:44:02;15.07;;;9.25;;
28007;SDS011;15333;50.010;20.020;2023-07-20T05:47:03;13.10;;;5.57;;
28007;SDS011;15333;50.010;20.020;2023-07-20T05:50:05;12.90;;;5.72;;
28007;SDS011;15333;50.010;20.020;2023-07-20T05:53:06;11.73;;;5.70;;
28007;SDS011;15333;50.010;20.020;2023-07-20T05:56:07;10.15;;;5.07;;
28007;SDS011;15333;50.010;20.020;2023-07-20T05:59:11;9.07;;;5.50;;
28007;SDS011;15333;50.010;20.020;2023-07-20T06:02:12;14.15;;;5.30;;
28007;SDS011;15333;50.010;20.020;2023-07-20T06:05:13;10.77;;;5.57;;
28007;SDS011;15333;50.010;20.020;2023-07-20T06:08:14;11.80;;;5.95;;
28007;SDS011;15333;50.010;20.020;2023-07-20T06:11:15;19.13;;;5.82;;
28007;SDS011;15333;50.010;20.020;2023-07-20T06:14:16;9.63;;;5.32;;
28007;SDS011;15333;50.010;20.020;2023-07-20T06:17:19;11.18;;;5.70;;
28007;SDS011;15333;50.010;20.020;2023-07-20T06:20:20;8.32;;;4.80;;
28007;SDS011;15333;50.010;20.020;2023-07-20T06:23:22;9.40;;;4.85;;
28007;SDS011;15333;50.010;20.020;2023-07-20T06:26:22;11.05;;;5.10;;
28007;SDS011;15333;50.010;20.020;2023-07-20T06:29:24;11.30;;;5.43;;
28007;SDS011;15333;50.010;20.020;2023-07-20T06:32:24;9.05;;;5.25;;
28007;SDS011;15333;50.010;20.020;2023-07-20T06:35:25;6.57;;;4.63;;
28007;SDS011;15333;50.010;20.020;2023-07-20T06:38:26;7.45;;;4.45;;
28007;SDS011;15333;50.010;20.020;2023-07-20T06:41:27;10.75;;;4.38;;
28007;SDS011;15333;50.010;20.020;2023-07-20T06:44:28;8.20;;;4.28;;
28007;SDS011;15333;50.010;20.020;2023-07-20T06:47:29;7.40;;;4.13;;
28007;SDS011;15333;50.010;20.020;2023-07-20T06:50:31;5.40;;;4.20;;
28007;SDS011;15333;50.010;20.020;2023-07-20T06:53:32;7.22;;;4.65;;
28007;SDS011;15333;50.010;20.020;2023-07-20T06:56:33;10.32;;;4.13;;
28007;SDS011;15333;50.010;20.020;2023-07-20T06:59:34;7.53;;;4.15;;
28007;SDS011;15333;50.010;20.020;2023-07-20T07:02:34;10.20;;;4.43;;
28007;SDS011;15333;50.010;20.020;2023-07-20T07:05:36;5.72;;;4.70;;
28007;SDS011;15333;50.010;20.020;2023-07-20T07:08:38;5.13;;;4.38;;
28007;SDS011;15333;50.010;20.020;2023-07-20T07:11:39;10.20;;;4.85;;
28007;SDS011;15333;50.010;20.020;2023-07-20T07:14:40;7.10;;;3.80;;
28007;SDS011;15333;50.010;20.020;2023-07-20T07:17:41;9.07;;;4.55;;
28007;SDS011;15333;50.010;20.020;2023-07-20T07:20:49;9.23;;;4.63;;
28007;SDS011;15333;50.010;20.020;2023-07-20T07:23:51;5.72;;;4.15;;
28007;SDS011;15333;50.010;20.020;2023-07-20T07:26:53;12.25;;;4.40;;
28007;SDS011;15333;50.010;20.020;2023-07-20T07:29:54;9.60;;;4.53;;
28007;SDS011;15333;50.010;20.020;2023-07-20T07:32:55;7.82;;;4.55;;
28007;SDS011;15333;50.010;20.020;2023-07-20T07:35:56;6.78;;;4.43;;
28007;SDS011;15333;50.010;20.020;2023-07-20T07:38:57;8.30;;;5.22;;
28007;SDS011;15333;50.010;20.020;2023-07-20T07:41:58;6.60;;;4.35;;
28007;SDS011;15333;50.010;20.020;2023-07-20T07:44:59;8.65;;;4.80;;
28007;SDS011;15333;50.010;20.020;2023-07-20T07:48:00;10.35;;;4.82;;
28007;SDS011;15333;50.010;20.020;2023-07-20T07:51:00;15.00;;;4.85;;
28007;SDS011;15333;50.010;20.020;2023-07-20T07:54:01;8.63;;;4.80;;
28007;SDS011;15333;50.010;20.020;2023-07-20T07:57:02;9.60;;;4.78;;
28007;SDS011;15333;50.010;20.020;2023-07-20T08:00:03;9.95;;;5.47;;
28007;SDS011;15333;50.010;20.020;2023-07-20T08:03:06;11.88;;;4.95;;
28007;SDS011;15333;50.010;20.020;2023-07-20T08:06:08;10.07;;;5.57;;
28007;SDS011;15333;50.010;20.020;2023-07-20T08:09:08;8.95;;;5.60;;
28007;SDS011;15333;50.010;20.020;2023-07-20T08:12:09;9.43;;;5.40;;
28007;SDS011;15333;50.010;20.020;2023-07-20T08:15:10;8.65;;;4.80;;
28007;SDS011;15333;50.010;20.020;2023-07-20T08:18:12;11.43;;;5.45;;
28007;SDS011;15333;50.010;20.020;2023-07-20T08:21:13;8.40;;;5.25;;
28007;SDS011;15333;50.010;20.020;2023-07-20T08:24:14;6.90;;;4.88;;
28007;SDS011;15333;50.010;20.020;2023-07-20T08:27:14;10.68;;;6.40;;
28007;SDS011;15333;50.010;20.020;2023-07-20T08:30:15;9.52;;;4.75;;
28007;SDS011;15333;50.010;20.020;2023-07-20T08:33:17;8.52;;;4.50;;
28007;SDS011;15333;50.010;20.020;2023-07-20T08:36:20;7.65;;;4.60;;
28007;SDS011;15333;50.010;20.020;2023-07-20T08:39:21;6.45;;;4.20;;
28007;SDS011;15333;50.010;20.020;2023-07-20T08:42:23;8.75;;;4.80;;
28007;SDS011;15333;50.010;20.020;2023-07-20T08:45:24;8.07;;;4.82;;
28007;SDS011;15333;50.010;20.020;2023-07-20T08:48:28;10.73;;;4.55;;
28007;SDS011;15333;50.010;20.020;2023-07-20T08:51:31;9.25;;;4.60;;
28007;SDS011;15333;50.010;20.020;2023-07-20T08:54:34;8.63;;;4.85;;
28007;SDS011;15333;50.010;20.020;2023-07-20T08:57:35;8.38;;;4.80;;
28007;SDS011;15333;50.010;20.020;2023-07-20T09:00:37;6.90;;;4.53;;
28007;SDS011;15333;50.010;20.020;2023-07-20T09:03:38;7.28;;;4.53;;
28007;SDS011;15333;50.010;20.020;2023-07-20T09:06:40;7.53;;;3.53;;
28007;SDS011;15333;50.010;20.020;2023-07-20T09:09:41;12.18;;;4.35;;
28007;SDS011;15333;50.010;20.020;2023-07-20T09:12:43;8.68;;;3.72;;
28007;SDS011;15333;50.010;20.020;2023-07-20T09:15:47;7.75;;;3.92;;
28007;SDS011;15333;50.010;20.020;2023-07-20T09:18:53;5.43;;;3.60;;
28007;SDS011;15333;50.010;20.020;2023-07-20T09:21:54;5.78;;;3.58;;
28007;SDS011;15333;50.010;20.020;2023-07-20T09:24:55;6.07;;;3.55;;
28007;SDS011;15333;50.010;20.020;2023-07-20T09:27:56;6.05;;;3.58;;
28007;SDS011;15333;50.010;20.020;2023-07-20T09:30:57;4.72;;;3.58;;
28007;SDS011;15333;50.010;20.020;2023-07-20T09:33:57;7.72;;;3.70;;
28007;SDS011;15333;50.010;20.020;2023-07-20T09:36:59;4.85;;;3.63;;
28007;SDS011;15333;50.010;20.020;2023-07-20T09:40:00;6.10;;;3.47;;
28007;SDS011;15333;50.010;20.020;2023-07-20T09:43:02;4.50;;;3.50;;
28007;SDS011;15333;50.010;20.020;2023-07-20T09:46:04;6.82;;;3.20;;
28007;SDS011;15333;50.010;20.020;2023-07-20T09:49:08;5.15;;;3.25;;
28007;SDS011;15333;50.010;20.020;2023-07-20T09:52:09;7.57;;;3.22;;
28007;SDS011;15333;50.010;20.020;2023-07-20T09:55:12;3.22;;;2.80;;
28007;SDS011;15333;50.010;20.020;2023-07-20T09:58:14;4.95;;;3.05;;
28007;SDS011;15333;50.010;20.020;2023-07-20T10:01:17;6.15;;;3.20;;
28007;SDS011;15333;50.010;20.020;2023-07-20T10:04:22;7.47;;;2.90;;
28007;SDS011;15333;50.010;20.020;2023-07-20T10:07:24;4.03;;;2.97;;
28007;SDS011;15333;50.010;20.020;2023-07-20T10:10:28;5.32;;;3.13;;
28007;SDS011;15333;50.010;20.020;2023-07-20T10:13:32;5.75;;;3.08;;
28007;SDS011;15333;50.010;20.020;2023-07-20T10:16:39;4.35;;;2.28;;
28007;SDS011;15333;50.010;20.020;2023-07-20T10:19:50;6.72;;;2.80;;
28007;SDS011;15333;50.010;20.020;2023-07-20T10:22:55;3.10;;;2.28;;
28007;SDS011;15333;50.010;20.020;2023-07-20T10:25:57;2.80;;;2.28;;
28007;SDS011;15333;50.010;20.020;2023-07-20T10:28:59;4.50;;;2.40;;
28007;SDS011;15333;50.010;20.020;2023-07-20T10:32:02;4.95;;;2.30;;
28007;SDS011;15333;50.010;20.020;2023-07-20T10:35:06;6.25;;;3.15;;
28007;SDS011;15333;50.010;20.020;2023-07-20T10:38:13;4.85;;;2.28;;
28007;SDS011;15333;50.010;20.020;2023-07-20T10:41:18;6.35;;;2.40;;
28007;SDS011;15333;50.010;20.020;2023-07-20T10:44:21;5.78;;;2.55;;
28007;SDS011;15333;50.010;20.020;2023-07-20T10:47:21;6.53;;;2.90;;
28007;SDS011;15333;50.010;20.020;2023-07-20T10:50:22;5.72;;;2.90;;
28007;SDS011;15333;50.010;20.020;2023-07-20T10:53:23;4.68;;;2.60;;
28007;SDS011;15333;50.010;20.020;2023-07-20T10:56:27;4.38;;;2.60;;
28007;SDS011;15333;50.010;20.020;2023-07-20T11:02:41;6.68;;;2.40;;
28007;SDS011;15333;50.010;20.020;2023-07-20T11:05:42;3.90;;;2.50;;
28007;SDS011;15333;50.010;20.020;2023-07-20T11:08:44;3.33;;;2.50;;
28007;SDS011;15333;50.010;20.020;2023-07-20T11:11:46;5.53;;;2.90;;
28007;SDS011;15333;50.010;20.020;2023-07-20T11:14:55;4.45;;;2.33;;
28007;SDS011;15333;50.010;20.020;2023-07-20T11:18:10;6.35;;;3.10;;
28007;SDS011;15333;50.010;20.020;2023-07-20T11:21:12;3.72;;;2.67;;
28007;SDS011;15333;50.010;20.020;2023-07-20T11:24:14;5.05;;;2.50;;
28007;SDS011;15333;50.010;20.020;2023-07-20T11:27:15;4.60;;;2.58;;
28007;SDS011;15333;50.010;20.020;2023-07-20T11:30:16;4.88;;;2.88;;
28007;SDS011;15333;50.010;20.020;2023-07-20T11:33:17;4.60;;;3.00;;
28007;SDS011;15333;50.010;20.020;2023-07-20T11:36:18;5.03;;;3.05;;
28007;SDS011;15333;50.010;20.020;2023-07-20T11:39:20;3.85;;;3.20;;
28007;SDS011;15333;50.010;20.020;2023-07-20T11:42:22;3.80;;;2.97;;
28007;SDS011;15333;50.010;20.020;2023-07-20T11:45:24;11.85;;;4.45;;
28007;SDS011;15333;50.010;20.020;2023-07-20T11:48:25;7.90;;;3.50;;
28007;SDS011;15333;50.010;20.020;2023-07-20T11:51:30;7.68;;;3.35;;
28007;SDS011;15333;50.010;20.020;2023-07-20T11:54:32;7.25;;;3.50;;
28007;SDS011;15333;50.010;20.020;2023-07-20T11:57:34;5.82;;;3.67;;
28007;SDS011;15333;50.010;20.020;2023-07-20T12:00:36;4.65;;;2.95;;
28007;SDS011;15333;50.010;20.020;2023-07-20T12:03:39;5.60;;;3.53;;
28007;SDS011;15333;50.010;20.020;2023-07-20T12:06:40;5.93;;;3.83;;
28007;SDS011;15333;50.010;20.020;2023-07-20T12:09:41;3.70;;;3.40;;
28007;SDS011;15333;50.010;20.020;2023-07-20T12:12:42;8.15;;;4.65;;
28007;SDS011;15333;50.010;20.020;2023-07-20T12:15:44;7.10;;;5.25;;
28007;SDS011;15333;50.010;20.020;2023-07-20T12:18:45;7.15;;;5.55;;
28007;SDS011;15333;50.010;20.020;2023-07-20T12:21:46;6.95;;;5.55;;
28007;SDS011;15333;50.010;20.020;2023-07-20T12:24:47;10.38;;;5.43;;
28007;SDS011;15333;50.010;20.020;2023-07-20T12:27:53;6.18;;;5.18;;
28007;SDS011;15333;50.010;20.020;2023-07-20T12:30:54;8.23;;;5.43;;
28007;SDS011;15333;50.010;20.020;2023-07-20T12:33:57;12.40;;;6.20;;
28007;SDS011;15333;50.010;20.020;2023-07-20T12:36:58;8.00;;;5.28;;
28007;SDS011;15333;50.010;20.020;2023-07-20T12:39:59;8.00;;;5.45;;
28007;SDS011;15333;50.010;20.020;2023-07-20T12:43:00;6.47;;;5.35;;
28007;SDS011;15333;50.010;20.020;2023-07-20T12:46:01;8.50;;;5.65;;
28007;SDS011;15333;50.010;20.020;2023-07-20T12:49:02;8.73;;;5.07;;
28007;SDS011;15333;50.010;20.020;2023-07-20T12:52:03;7.70;;;5.20;;
28007;SDS011;15333;50.010;20.020;2023-07-20T12:55:04;9.43;;;4.88;;
28007;SDS011;15333;50.010;20.020;2023-07-20T12:58:11;5.60;;;4.28;;
28007;SDS011;15333;50.010;20.020;2023-07-20T13:01:12;8.75;;;4.55;;
28007;SDS011;15333;50.010;20.020;2023-07-20T13:04:13;5.40;;;4.10;;
28007;SDS011;15333;50.010;20.020;2023-07-20T13:07:14;6.20;;;3.63;;
28007;SDS011;15333;50.010;20.020;2023-07-20T13:10:15;6.03;;;4.10;;
28007;SDS011;15333;50.010;20.020;2023-07-20T13:13:16;4.82;;;3.97;;
28007;SDS011;15333;50.010;20.020;2023-07-20T13:16:17;7.25;;;4.55;;
28007;SDS011;15333;50.010;20.020;2023-07-20T13:19:17;8.77;;;4.32;;
28007;SDS011;15333;50.010;20.020;2023-07-20T13:22:19;9.38;;;4.60;;
28007;SDS011;15333;50.010;20.020;2023-07-20T13:25:20;6.65;;;3.95;;
28007;SDS011;15333;50.010;20.020;2023-07-20T13:28:25;7.47;;;4.60;;
28007;SDS011;15333;50.010;20.020;2023-07-20T13:31:25;6.70;;;4.15;;
28007;SDS011;15333;50.010;20.020;2023-07-20T13:34:26;8.88;;;4.40;;
28007;SDS011;15333;50.010;20.020;2023-07-20T13:37:27;6.35;;;4.32;;
28007;SDS011;15333;50.010;20.020;2023-07-20T13:40:29;6.18;;;4.90;;
28007;SDS011;15333;50.010;20.020;2023-07-20T13:43:30;7.82;;;5.00;;
28007;SDS011;15333;50.010;20.020;2023-07-20T13:46:31;5.10;;;4.60;;
28007;SDS011;15333;50.010;20.020;2023-07-20T13:49:31;6.82;;;4.70;;
28007;SDS011;15333;50.010;20.020;2023-07-20T13:52:33;7.80;;;3.85;;
28007;SDS011;15333;50.010;20.020;2023-07-20T13:55:34;10.73;;;4.72;;
28007;SDS011;15333;50.010;20.020;2023-07-20T13:58:37;6.70;;;4.40;;
28007;SDS011;15333;50.010;20.020;2023-07-20T14:01:38;6.25;;;3.97;;
28007;SDS011;15333;50.010;20.020;2023-07-20T14:04:39;5.28;;;3.88;;
28007;SDS011;15333;50.010;20.020;2023-07-20T14:07:40;6.43;;;4.18;;
28007;SDS011;15333;50.010;20.020;2023-07-20T14:10:41;5.22;;;4.22;;
28007;SDS011;15333;50.010;20.020;2023-07-20T14:13:42;7.25;;;3.78;;
28007;SDS011;15333;50.010;20.020;2023-07-20T14:16:43;6.50;;;4.30;;
28007;SDS011;15333;50.010;20.020;2023-07-20T14:19:43;7.07;;;3.50;;
28007;SDS011;15333;50.010;20.020;2023-07-20T14:22:45;4.18;;;3.25;;
28007;SDS011;15333;50.010;20.020;2023-07-20T14:25:46;3.78;;;3.38;;
28007;SDS011;15333;50.010;20.020;2023-07-20T14:28:49;3.67;;;3.00;;
28007;SDS011;15333;50.010;20.020;2023-07-20T14:31:50;4.97;;;3.30;;
28007;SDS011;15333;50.010;20.020;2023-07-20T14:34:53;5.35;;;3.00;;
28007;SDS011;15333;50.010;20.020;2023-07-20T14:37:53;3.00;;;2.50;;
28007;SDS011;15333;50.010;20.020;2023-07-20T14:40:54;6.75;;;3.38;;
28007;SDS011;15333;50.010;20.020;2023-07-20T14:43:55;4.97;;;2.85;;
28007;SDS011;15333;50.010;20.020;2023-07-20T14:46:56;3.20;;;2.90;;
28007;SDS011;15333;50.010;20.020;2023-07-20T14:49:57;4.80;;;2.63;;
28007;SDS011;15333;50.010;20.020;2023-07-20T14:52:59;4.13;;;2.83;;
28007;SDS011;15333;50.010;20.020;2023-07-20T14:56:00;4.40;;;2.78;;
28007;SDS011;15333;50.010;20.020;2023-07-20T14:59:02;3.13;;;2.83;;
28007;SDS011;15333;50.010;20.020;2023-07-20T15:02:02;6.03;;;3.20;;
28007;SDS011;15333;50.010;20.020;2023-07-20T15:05:06;6.25;;;2.60;;
28007;SDS011;15333;50.010;20.020;2023-07-20T15:08:07;4.72;;;2.50;;
28007;SDS011;15333;50.010;20.020;2023-07-20T15:11:08;6.68;;;2.47;;
28007;SDS011;15333;50.010;20.020;2023-07-20T15:14:09;5.40;;;2.30;;
28007;SDS011;15333;50.010;20.020;2023-07-20T15:17:10;6.95;;;2.90;;
28007;SDS011;15333;50.010;20.020;2023-07-20T15:20:12;4.85;;;2.42;;
28007;SDS011;15333;50.010;20.020;2023-07-20T15:23:14;8.75;;;2.75;;
28007;SDS011;15333;50.010;20.020;2023-07-20T15:26:15;5.55;;;3.17;;
28007;SDS011;15333;50.010;20.020;2023-07-20T15:29:16;8.48;;;4.03;;
28007;SDS011;15333;50.010;20.020;2023-07-20T15:32:17;7.38;;;3.55;;
28007;SDS011;15333;50.010;20.020;2023-07-20T15:35:18;5.55;;;3.80;;
28007;SDS011;15333;50.010;20.020;2023-07-20T15:38:19;3.33;;;3.03;;
28007;SDS011;15333;50.010;20.020;2023-07-20T15:41:20;7.38;;;4.70;;
28007;SDS011;15333;50.010;20.020;2023-07-20T15:44:21;8.45;;;4.97;;
28007;SDS011;15333;50.010;20.020;2023-07-20T15:47:22;4.85;;;3.95;;
28007;SDS011;15333;50.010;20.020;2023-07-20T15:50:23;5.88;;;3.47;;
28007;SDS011;15333;50.010;20.020;2023-07-20T15:53:24;6.90;;;4.85;;
28007;SDS011;15333;50.010;20.020;2023-07-20T15:56:25;7.47;;;4.32;;
28007;SDS011;15333;50.010;20.020;2023-07-20T15:59:26;7.70;;;5.20;;
28007;SDS011;15333;50.010;20.020;2023-07-20T16:02:27;7.07;;;4.47;;
28007;SDS011;15333;50.010;20.020;2023-07-20T16:05:28;6.82;;;4.53;;
28007;SDS011;15333;50.010;20.020;2023-07-20T16:08:29;4.82;;;3.80;;
28007;SDS011;15333;50.010;20.020;2023-07-20T16:11:31;6.28;;;3.88;;
28007;SDS011;15333;50.010;20.020;2023-07-20T16:14:32;6.55;;;4.00;;
28007;SDS011;15333;50.010;20.020;2023-07-20T16:17:33;5.95;;;4.32;;
28007;SDS011;15333;50.010;20.020;2023-07-20T16:20:34;4.57;;;3.90;;
28007;SDS011;15333;50.010;20.020;2023-07-20T16:23:35;6.05;;;3.42;;
28007;SDS011;15333;50.010;20.020;2023-07-20T16:26:36;6.90;;;3.42;;
28007;SDS011;15333;50.010;20.020;2023-07-20T16:29:37;7.18;;;3.45;;
28007;SDS011;15333;50.010;20.020;2023-07-20T16:32:40;4.38;;;3.30;;
28007;SDS011;15333;50.010;20.020;2023-07-20T16:35:42;4.10;;;3.25;;
28007;SDS011;15333;50.010;20.020;2023-07-20T16:38:44;5.57;;;2.90;;
28007;SDS011;15333;50.010;20.020;2023-07-20T16:41:46;5.15;;;2.88;;
28007;SDS011;15333;50.010;20.020;2023-07-20T16:44:50;4.13;;;2.85;;
28007;SDS011;15333;50.010;20.020;2023-07-20T16:47:51;7.28;;;2.65;;
28007;SDS011;15333;50.010;20.020;2023-07-20T16:50:52;4.50;;;2.40;;
28007;SDS011;15333;50.010;20.020;2023-07-20T16:53:54;3.83;;;2.97;;
28007;SDS011;15333;50.010;20.020;2023-07-20T16:56:54;4.85;;;3.25;;
28007;SDS011;15333;50.010;20.020;2023-07-20T16:59:55;6.45;;;3.03;;
28007;SDS011;15333;50.010;20.020;2023-07-20T17:02:56;5.30;;;3.15;;
28007;SDS011;15333;50.010;20.020;2023-07-20T17:05:58;8.25;;;3.70;;
28007;SDS011;15333;50.010;20.020;2023-07-20T17:08:59;9.02;;;3.63;;
28007;SDS011;15333;50.010;20.020;2023-07-20T17:12:01;4.53;;;3.30;;
28007;SDS011;15333;50.010;20.020;2023-07-20T17:15:02;6.13;;;3.30;;
28007;SDS011;15333;50.010;20.020;2023-07-20T17:18:04;4.28;;;2.92;;
28007;SDS011;15333;50.010;20.020;2023-07-20T17:21:05;4.30;;;2.63;;
28007;SDS011;15333;50.010;20.020;2023-07-20T17:24:07;4.50;;;2.88;;
28007;SDS011;15333;50.010;20.020;2023-07-20T17:27:09;4.13;;;2.60;;
28007;SDS011;15333;50.010;20.020;2023-07-20T17:30:11;2.80;;;2.60;;
28007;SDS011;15333;50.010;20.020;2023-07-20T17:33:13;4.47;;;2.63;;
28007;SDS011;15333;50.010;20.020;2023-07-20T17:36:16;2.60;;;2.33;;
28007;SDS011;15333;50.010;20.020;2023-07-20T17:39:17;4.43;;;2.97;;
28007;SDS011;15333;50.010;20.020;2023-07-20T17:42:18;3.55;;;2.65;;
28007;SDS011;15333;50.010;20.020;2023-07-20T17:45:19;4.57;;;2.80;;
28007;SDS011;15333;50.010;20.020;2023-07-20T17:51:40;5.47;;;3.00;;
28007;SDS011;15333;50.010;20.020;2023-07-20T17:54:41;4.85;;;3.15;;
28007;SDS011;15333;50.010;20.020;2023-07-20T17:57:42;13.02;;;3.30;;
28007;SDS011;15333;50.010;20.020;2023-07-20T18:00:43;3.95;;;2.90;;
28007;SDS011;15333;50.010;20.020;2023-07-20T18:03:44;5.10;;;3.03;;
28007;SDS011;15333;50.010;20.020;2023-07-20T18:06:45;4.07;;;3.00;;
28007;SDS011;15333;50.010;20.020;2023-07-20T18:09:45;4.40;;;3.10;;